Skip Navigation Links
NOAA logo - Click to go to the NOAA homepage
NOAA's National Weather Service
Alaska Aviation Weather Unit
  NWS logo - Click to go to the NWS homepage
Left Navbar Graphic     03 AKDT = 11 GMT

   
NOAA is celebrating 200 years of science, service, and stewardship. Visit the NOAA 200th celebration Web site to learn more.
USA.gov is the U.S. Government's official Web portal to all Federal, state and local government Web resources and services.
Facebook
NWS on Facebook

AAWU Home :: Display TAF Add Bookmark
TAF PAJN 290531Z 2906/3006 08010KT P6SM -SHRA FEW025 BKN035 OVC050
     FM291000 10012KT 5SM -SHRA BR SCT020 OVC030
     FM291500 11010KT 6SM -SHRA BKN018 OVC030
     FM292100 11008KT P6SM -SHRA OVC025=

PAJN 290550Z 08008KT 10SM -RA BKN023 BKN031 OVC038 03/03 A2980= SPECI PAJN 290550Z 08008KT 10SM -RA BKN023 BKN031 OVC038 03/03 A2980 RMK AO2 RAB41 P0000= METAR PAJN 290553Z 08008KT 10SM -RA SCT023 BKN034 OVC045 03/03 A2980= METAR PAJN 290653Z 08010KT 10SM FEW014 BKN055 OVC095 04/03 A2980= METAR PAJN 290753Z 07007KT 10SM -RA BKN050 OVC070 03/03 A2979= METAR PAJN 290853Z 08009KT 9SM -RA BKN048 BKN065 OVC080 03/03 A2979= PAJN 290939Z 09009KT 7SM -RA FEW009 BKN036 OVC055 03/03 A2978= SPECI PAJN 290939Z 09009KT 7SM -RA FEW009 BKN036 OVC055 03/03 A2978 RMK AO2 P0002 T00330033= METAR PAJN 290953Z 09009KT 10SM -RA FEW007 BKN036 OVC049 03/03 A2978= METAR PAJN 291053Z 07007KT 10SM -RA SCT007 SCT028 OVC036 03/03 A2979 RMK AO2 SLP086 P0001 T00330028=
 Alaska TAF Map

NOAA's National Weather Service
Alaska Aviation Weather Unit
6930 Sand Lake Road
Anchorage, AK 99502-1845
Disclaimer
Credits
Glossary
Privacy Policy
About Us
Career Opportunities
Contact AAWU Internet Services Site last modified: April, 17th 2012